KBCB/BCB METAR and TAF weather

Enter ICAO airport designator
Station Type Date Time Source
KBCB METAR 2021/05/11 16:55 UTC NOAA

KBCB 111655Z AUTO 16003KT 10SM CLR 16/05 A3017 RMK AO2 T01630051


Station Type Date Time Source
KBCB Decoded METAR 2021/05/11 16:55 UTC NOAA

Virginia Tech Airport, VA, United States (KBCB) 37-13N 080-25W
May 11, 2021 - 12:55 PM EDT / 2021.05.11 1655 UTC
Wind: from the SSE (160 degrees) at 3 MPH (3 KT):0
Visibility: 10 mile(s):0
Sky conditions: clear
Temperature: 61.3 F (16.3 C)
Dew Point: 41.2 F (5.1 C)
Relative Humidity: 47%
Pressure (altimeter): 30.17 in. Hg (1021 hPa)
ob: KBCB 111655Z AUTO 16003KT 10SM CLR 16/05 A3017 RMK AO2 T01630051
cycle: 17

Station Type Date Time Source
KBCB TAF 2021/05/11 12:51 UTC NOAA

TAF
AMD KBCB 111148Z 1112/1212 00000KT P6SM OVC030
FM111400 28003KT P6SM SCT035 SCT120
FM120300 32006KT P6SM BKN060

Example: see airport list